sensor_id;sensor_type;location;lat;lon;timestamp;P1;durP1;ratioP1;P2;durP2;ratioP2
20122;SDS011;10222;50.848;4.336;2024-01-15T00:02:22;21.00;;;8.83;;
20122;SDS011;10222;50.848;4.336;2024-01-15T00:04:48;28.90;;;9.83;;
20122;SDS011;10222;50.848;4.336;2024-01-15T00:07:14;22.10;;;8.57;;
20122;SDS011;10222;50.848;4.336;2024-01-15T00:09:40;22.53;;;9.50;;
20122;SDS011;10222;50.848;4.336;2024-01-15T00:12:06;16.33;;;8.07;;
20122;SDS011;10222;50.848;4.336;2024-01-15T00:14:32;19.73;;;8.50;;
20122;SDS011;10222;50.848;4.336;2024-01-15T00:16:58;19.83;;;7.63;;
20122;SDS011;10222;50.848;4.336;2024-01-15T00:19:24;22.07;;;8.20;;
20122;SDS011;10222;50.848;4.336;2024-01-15T00:21:50;17.17;;;7.80;;
20122;SDS011;10222;50.848;4.336;2024-01-15T00:24:16;19.70;;;8.40;;
20122;SDS011;10222;50.848;4.336;2024-01-15T00:26:42;21.13;;;8.47;;
20122;SDS011;10222;50.848;4.336;2024-01-15T00:29:08;20.20;;;7.87;;
20122;SDS011;10222;50.848;4.336;2024-01-15T00:31:34;16.47;;;6.13;;
20122;SDS011;10222;50.848;4.336;2024-01-15T00:34:00;21.50;;;7.53;;
20122;SDS011;10222;50.848;4.336;2024-01-15T00:36:27;21.07;;;8.77;;
20122;SDS011;10222;50.848;4.336;2024-01-15T00:38:53;16.13;;;7.00;;
20122;SDS011;10222;50.848;4.336;2024-01-15T00:41:20;18.07;;;5.97;;
20122;SDS011;10222;50.848;4.336;2024-01-15T00:43:46;13.77;;;6.33;;
20122;SDS011;10222;50.848;4.336;2024-01-15T00:46:15;17.43;;;6.17;;
20122;SDS011;10222;50.848;4.336;2024-01-15T00:48:41;12.30;;;5.87;;
20122;SDS011;10222;50.848;4.336;2024-01-15T00:51:07;19.40;;;6.57;;
20122;SDS011;10222;50.848;4.336;2024-01-15T00:53:33;13.47;;;5.73;;
20122;SDS011;10222;50.848;4.336;2024-01-15T00:55:59;12.63;;;5.87;;
20122;SDS011;10222;50.848;4.336;2024-01-15T00:58:26;14.33;;;6.20;;
20122;SDS011;10222;50.848;4.336;2024-01-15T01:00:52;12.93;;;5.40;;
20122;SDS011;10222;50.848;4.336;2024-01-15T01:03:18;15.40;;;6.33;;
20122;SDS011;10222;50.848;4.336;2024-01-15T01:05:44;13.50;;;5.03;;
20122;SDS011;10222;50.848;4.336;2024-01-15T01:08:10;9.77;;;4.93;;
20122;SDS011;10222;50.848;4.336;2024-01-15T01:10:37;10.40;;;6.17;;
20122;SDS011;10222;50.848;4.336;2024-01-15T01:13:04;15.07;;;4.67;;
20122;SDS011;10222;50.848;4.336;2024-01-15T01:15:30;13.70;;;5.20;;
20122;SDS011;10222;50.848;4.336;2024-01-15T01:17:56;11.10;;;4.57;;
20122;SDS011;10222;50.848;4.336;2024-01-15T01:20:22;7.30;;;4.53;;
20122;SDS011;10222;50.848;4.336;2024-01-15T01:22:47;7.07;;;3.70;;
20122;SDS011;10222;50.848;4.336;2024-01-15T01:25:13;6.70;;;3.77;;
20122;SDS011;10222;50.848;4.336;2024-01-15T01:27:40;7.87;;;4.30;;
20122;SDS011;10222;50.848;4.336;2024-01-15T01:30:06;5.97;;;3.00;;
20122;SDS011;10222;50.848;4.336;2024-01-15T01:32:32;6.27;;;3.40;;
20122;SDS011;10222;50.848;4.336;2024-01-15T01:34:58;10.07;;;3.47;;
20122;SDS011;10222;50.848;4.336;2024-01-15T01:37:24;7.03;;;3.10;;
20122;SDS011;10222;50.848;4.336;2024-01-15T01:39:50;5.97;;;2.87;;
20122;SDS011;10222;50.848;4.336;2024-01-15T01:42:16;6.67;;;3.00;;
20122;SDS011;10222;50.848;4.336;2024-01-15T01:44:42;4.93;;;2.80;;
20122;SDS011;10222;50.848;4.336;2024-01-15T01:47:08;3.87;;;2.63;;
20122;SDS011;10222;50.848;4.336;2024-01-15T01:49:34;4.70;;;2.80;;
20122;SDS011;10222;50.848;4.336;2024-01-15T01:52:04;4.37;;;2.57;;
20122;SDS011;10222;50.848;4.336;2024-01-15T01:54:32;4.50;;;2.10;;
20122;SDS011;10222;50.848;4.336;2024-01-15T01:56:58;4.93;;;2.80;;
20122;SDS011;10222;50.848;4.336;2024-01-15T01:59:27;3.40;;;2.13;;
20122;SDS011;10222;50.848;4.336;2024-01-15T02:01:54;9.37;;;2.60;;
20122;SDS011;10222;50.848;4.336;2024-01-15T02:04:22;3.27;;;2.33;;
20122;SDS011;10222;50.848;4.336;2024-01-15T02:06:49;4.20;;;2.50;;
20122;SDS011;10222;50.848;4.336;2024-01-15T02:09:15;3.47;;;2.13;;
20122;SDS011;10222;50.848;4.336;2024-01-15T02:11:42;3.27;;;1.90;;
20122;SDS011;10222;50.848;4.336;2024-01-15T02:14:08;2.40;;;1.93;;
20122;SDS011;10222;50.848;4.336;2024-01-15T02:16:35;7.97;;;2.13;;
20122;SDS011;10222;50.848;4.336;2024-01-15T02:19:01;4.10;;;2.57;;
20122;SDS011;10222;50.848;4.336;2024-01-15T02:21:27;2.53;;;2.00;;
20122;SDS011;10222;50.848;4.336;2024-01-15T02:23:54;2.87;;;1.53;;
20122;SDS011;10222;50.848;4.336;2024-01-15T02:26:20;4.43;;;1.70;;
20122;SDS011;10222;50.848;4.336;2024-01-15T02:28:47;3.17;;;1.73;;
20122;SDS011;10222;50.848;4.336;2024-01-15T02:31:13;4.53;;;1.73;;
20122;SDS011;10222;50.848;4.336;2024-01-15T02:33:39;2.80;;;1.70;;
20122;SDS011;10222;50.848;4.336;2024-01-15T02:36:06;4.33;;;1.60;;
20122;SDS011;10222;50.848;4.336;2024-01-15T02:38:32;5.90;;;2.17;;
20122;SDS011;10222;50.848;4.336;2024-01-15T02:40:58;5.13;;;2.33;;
20122;SDS011;10222;50.848;4.336;2024-01-15T02:43:24;5.03;;;2.47;;
20122;SDS011;10222;50.848;4.336;2024-01-15T02:45:50;3.13;;;2.33;;
20122;SDS011;10222;50.848;4.336;2024-01-15T02:48:16;4.87;;;2.67;;
20122;SDS011;10222;50.848;4.336;2024-01-15T02:50:42;6.17;;;3.47;;
20122;SDS011;10222;50.848;4.336;2024-01-15T02:53:08;8.07;;;4.07;;
20122;SDS011;10222;50.848;4.336;2024-01-15T02:55:34;6.07;;;3.30;;
20122;SDS011;10222;50.848;4.336;2024-01-15T02:58:00;9.13;;;4.63;;
20122;SDS011;10222;50.848;4.336;2024-01-15T03:00:26;7.93;;;4.50;;
20122;SDS011;10222;50.848;4.336;2024-01-15T03:02:52;9.73;;;4.37;;
20122;SDS011;10222;50.848;4.336;2024-01-15T03:05:18;11.13;;;5.70;;
20122;SDS011;10222;50.848;4.336;2024-01-15T03:07:45;9.73;;;4.30;;
20122;SDS011;10222;50.848;4.336;2024-01-15T03:10:11;8.30;;;4.33;;
20122;SDS011;10222;50.848;4.336;2024-01-15T03:12:37;11.80;;;4.87;;
20122;SDS011;10222;50.848;4.336;2024-01-15T03:15:03;11.80;;;5.63;;
20122;SDS011;10222;50.848;4.336;2024-01-15T03:17:29;9.13;;;4.60;;
20122;SDS011;10222;50.848;4.336;2024-01-15T03:19:55;11.10;;;5.63;;
20122;SDS011;10222;50.848;4.336;2024-01-15T03:22:21;13.43;;;5.00;;
20122;SDS011;10222;50.848;4.336;2024-01-15T03:24:47;9.67;;;5.47;;
20122;SDS011;10222;50.848;4.336;2024-01-15T03:27:13;14.40;;;6.13;;
20122;SDS011;10222;50.848;4.336;2024-01-15T03:29:40;15.40;;;5.17;;
20122;SDS011;10222;50.848;4.336;2024-01-15T03:32:06;15.13;;;6.17;;
20122;SDS011;10222;50.848;4.336;2024-01-15T03:34:33;13.97;;;6.40;;
20122;SDS011;10222;50.848;4.336;2024-01-15T03:36:59;13.33;;;5.77;;
20122;SDS011;10222;50.848;4.336;2024-01-15T03:39:25;16.00;;;6.10;;
20122;SDS011;10222;50.848;4.336;2024-01-15T03:41:51;13.87;;;6.77;;
20122;SDS011;10222;50.848;4.336;2024-01-15T03:44:17;15.80;;;6.37;;
20122;SDS011;10222;50.848;4.336;2024-01-15T03:46:43;16.87;;;6.80;;
20122;SDS011;10222;50.848;4.336;2024-01-15T03:49:09;17.03;;;6.20;;
20122;SDS011;10222;50.848;4.336;2024-01-15T03:51:35;18.73;;;6.97;;
20122;SDS011;10222;50.848;4.336;2024-01-15T03:54:01;12.23;;;6.33;;
20122;SDS011;10222;50.848;4.336;2024-01-15T03:56:27;17.17;;;7.17;;
20122;SDS011;10222;50.848;4.336;2024-01-15T03:58:53;17.87;;;7.10;;
20122;SDS011;10222;50.848;4.336;2024-01-15T04:01:20;17.23;;;8.00;;
20122;SDS011;10222;50.848;4.336;2024-01-15T04:03:46;15.17;;;7.23;;
20122;SDS011;10222;50.848;4.336;2024-01-15T04:06:12;16.60;;;7.83;;
20122;SDS011;10222;50.848;4.336;2024-01-15T04:08:38;19.00;;;8.33;;
20122;SDS011;10222;50.848;4.336;2024-01-15T04:11:04;19.43;;;8.37;;
20122;SDS011;10222;50.848;4.336;2024-01-15T04:13:33;18.57;;;8.40;;
20122;SDS011;10222;50.848;4.336;2024-01-15T04:15:59;15.50;;;7.90;;
20122;SDS011;10222;50.848;4.336;2024-01-15T04:18:25;15.13;;;7.90;;
20122;SDS011;10222;50.848;4.336;2024-01-15T04:20:51;16.83;;;7.80;;
20122;SDS011;10222;50.848;4.336;2024-01-15T04:23:17;15.47;;;7.60;;
20122;SDS011;10222;50.848;4.336;2024-01-15T04:25:43;16.70;;;7.53;;
20122;SDS011;10222;50.848;4.336;2024-01-15T04:28:10;18.87;;;7.87;;
20122;SDS011;10222;50.848;4.336;2024-01-15T04:30:37;16.13;;;7.77;;
20122;SDS011;10222;50.848;4.336;2024-01-15T04:33:03;18.97;;;8.07;;
20122;SDS011;10222;50.848;4.336;2024-01-15T04:35:29;19.57;;;7.97;;
20122;SDS011;10222;50.848;4.336;2024-01-15T04:37:55;17.20;;;7.33;;
20122;SDS011;10222;50.848;4.336;2024-01-15T04:40:21;11.03;;;5.10;;
20122;SDS011;10222;50.848;4.336;2024-01-15T04:42:47;13.87;;;6.77;;
20122;SDS011;10222;50.848;4.336;2024-01-15T04:45:13;14.73;;;5.97;;
20122;SDS011;10222;50.848;4.336;2024-01-15T04:47:39;10.80;;;5.77;;
20122;SDS011;10222;50.848;4.336;2024-01-15T04:50:07;18.20;;;5.83;;
20122;SDS011;10222;50.848;4.336;2024-01-15T04:52:33;11.30;;;5.80;;
20122;SDS011;10222;50.848;4.336;2024-01-15T04:54:59;15.27;;;5.63;;
20122;SDS011;10222;50.848;4.336;2024-01-15T04:57:25;9.20;;;4.63;;
20122;SDS011;10222;50.848;4.336;2024-01-15T04:59:51;8.63;;;3.67;;
20122;SDS011;10222;50.848;4.336;2024-01-15T05:02:17;10.30;;;4.10;;
20122;SDS011;10222;50.848;4.336;2024-01-15T05:04:43;8.70;;;3.93;;
20122;SDS011;10222;50.848;4.336;2024-01-15T05:07:09;11.37;;;3.53;;
20122;SDS011;10222;50.848;4.336;2024-01-15T05:09:35;4.70;;;2.70;;
20122;SDS011;10222;50.848;4.336;2024-01-15T05:12:01;6.07;;;2.60;;
20122;SDS011;10222;50.848;4.336;2024-01-15T05:14:27;3.63;;;2.17;;
20122;SDS011;10222;50.848;4.336;2024-01-15T05:16:54;4.47;;;2.23;;
20122;SDS011;10222;50.848;4.336;2024-01-15T05:19:23;4.80;;;1.80;;
20122;SDS011;10222;50.848;4.336;2024-01-15T05:21:49;7.20;;;2.23;;
20122;SDS011;10222;50.848;4.336;2024-01-15T05:24:17;3.53;;;1.73;;
20122;SDS011;10222;50.848;4.336;2024-01-15T05:29:13;2.80;;;1.80;;
20122;SDS011;10222;50.848;4.336;2024-01-15T05:31:39;3.90;;;1.37;;
20122;SDS011;10222;50.848;4.336;2024-01-15T05:34:05;3.10;;;1.70;;
20122;SDS011;10222;50.848;4.336;2024-01-15T05:36:31;4.03;;;1.67;;
20122;SDS011;10222;50.848;4.336;2024-01-15T05:38:57;1.93;;;1.30;;
20122;SDS011;10222;50.848;4.336;2024-01-15T05:41:23;3.13;;;1.60;;
20122;SDS011;10222;50.848;4.336;2024-01-15T05:43:49;5.57;;;1.70;;
20122;SDS011;10222;50.848;4.336;2024-01-15T05:46:15;2.40;;;1.70;;
20122;SDS011;10222;50.848;4.336;2024-01-15T05:48:41;4.87;;;1.30;;
20122;SDS011;10222;50.848;4.336;2024-01-15T05:51:07;2.67;;;1.50;;
20122;SDS011;10222;50.848;4.336;2024-01-15T05:53:33;2.93;;;1.23;;
20122;SDS011;10222;50.848;4.336;2024-01-15T05:55:59;2.07;;;1.27;;
20122;SDS011;10222;50.848;4.336;2024-01-15T05:58:26;3.27;;;1.00;;
20122;SDS011;10222;50.848;4.336;2024-01-15T06:00:52;2.23;;;0.87;;
20122;SDS011;10222;50.848;4.336;2024-01-15T06:03:18;2.43;;;1.17;;
20122;SDS011;10222;50.848;4.336;2024-01-15T06:05:44;1.70;;;1.23;;
20122;SDS011;10222;50.848;4.336;2024-01-15T06:08:10;4.10;;;1.23;;
20122;SDS011;10222;50.848;4.336;2024-01-15T06:10:36;1.47;;;0.90;;
20122;SDS011;10222;50.848;4.336;2024-01-15T06:13:02;3.03;;;1.00;;
20122;SDS011;10222;50.848;4.336;2024-01-15T06:15:28;1.20;;;0.60;;
20122;SDS011;10222;50.848;4.336;2024-01-15T06:17:54;4.70;;;0.90;;
20122;SDS011;10222;50.848;4.336;2024-01-15T06:20:20;2.03;;;0.90;;
20122;SDS011;10222;50.848;4.336;2024-01-15T06:22:46;4.60;;;0.80;;
20122;SDS011;10222;50.848;4.336;2024-01-15T06:25:12;1.27;;;1.00;;
20122;SDS011;10222;50.848;4.336;2024-01-15T06:27:38;1.93;;;0.97;;
20122;SDS011;10222;50.848;4.336;2024-01-15T06:30:04;1.63;;;0.80;;
20122;SDS011;10222;50.848;4.336;2024-01-15T06:32:30;1.33;;;0.90;;
20122;SDS011;10222;50.848;4.336;2024-01-15T06:34:59;2.93;;;1.30;;
20122;SDS011;10222;50.848;4.336;2024-01-15T06:37:24;3.53;;;1.07;;
20122;SDS011;10222;50.848;4.336;2024-01-15T06:39:50;1.60;;;1.20;;
20122;SDS011;10222;50.848;4.336;2024-01-15T06:42:16;2.80;;;1.13;;
20122;SDS011;10222;50.848;4.336;2024-01-15T06:44:43;2.73;;;1.30;;
20122;SDS011;10222;50.848;4.336;2024-01-15T06:47:09;5.60;;;1.70;;
20122;SDS011;10222;50.848;4.336;2024-01-15T06:49:35;3.40;;;1.33;;
20122;SDS011;10222;50.848;4.336;2024-01-15T06:52:01;3.57;;;1.47;;
20122;SDS011;10222;50.848;4.336;2024-01-15T06:54:27;3.03;;;1.43;;
20122;SDS011;10222;50.848;4.336;2024-01-15T06:56:54;2.67;;;1.37;;
20122;SDS011;10222;50.848;4.336;2024-01-15T06:59:20;5.97;;;1.57;;
20122;SDS011;10222;50.848;4.336;2024-01-15T07:01:46;3.20;;;1.40;;
20122;SDS011;10222;50.848;4.336;2024-01-15T07:04:12;3.03;;;1.40;;
20122;SDS011;10222;50.848;4.336;2024-01-15T07:06:38;3.23;;;1.50;;
20122;SDS011;10222;50.848;4.336;2024-01-15T07:09:04;3.13;;;1.23;;
20122;SDS011;10222;50.848;4.336;2024-01-15T07:11:31;2.17;;;1.30;;
20122;SDS011;10222;50.848;4.336;2024-01-15T07:13:57;3.80;;;1.30;;
20122;SDS011;10222;50.848;4.336;2024-01-15T07:16:23;3.23;;;1.20;;
20122;SDS011;10222;50.848;4.336;2024-01-15T07:18:50;4.67;;;1.60;;
20122;SDS011;10222;50.848;4.336;2024-01-15T07:21:16;1.80;;;1.20;;
20122;SDS011;10222;50.848;4.336;2024-01-15T07:23:42;5.30;;;1.50;;
20122;SDS011;10222;50.848;4.336;2024-01-15T07:26:08;1.67;;;1.27;;
20122;SDS011;10222;50.848;4.336;2024-01-15T07:28:34;6.90;;;1.97;;
20122;SDS011;10222;50.848;4.336;2024-01-15T07:31:00;5.30;;;1.97;;
20122;SDS011;10222;50.848;4.336;2024-01-15T07:33:26;3.90;;;1.70;;
20122;SDS011;10222;50.848;4.336;2024-01-15T07:35:52;3.03;;;1.40;;
20122;SDS011;10222;50.848;4.336;2024-01-15T07:38:18;1.83;;;1.67;;
20122;SDS011;10222;50.848;4.336;2024-01-15T07:40:44;2.53;;;1.57;;
20122;SDS011;10222;50.848;4.336;2024-01-15T07:43:15;7.30;;;1.80;;
20122;SDS011;10222;50.848;4.336;2024-01-15T07:45:43;4.90;;;1.80;;
20122;SDS011;10222;50.848;4.336;2024-01-15T07:48:10;2.33;;;1.83;;
20122;SDS011;10222;50.848;4.336;2024-01-15T07:50:36;4.07;;;2.10;;
20122;SDS011;10222;50.848;4.336;2024-01-15T07:53:02;4.97;;;2.90;;
20122;SDS011;10222;50.848;4.336;2024-01-15T07:55:29;6.83;;;2.30;;
20122;SDS011;10222;50.848;4.336;2024-01-15T07:57:56;7.17;;;3.23;;
20122;SDS011;10222;50.848;4.336;2024-01-15T08:00:25;4.50;;;2.90;;
20122;SDS011;10222;50.848;4.336;2024-01-15T08:02:52;6.70;;;3.50;;
20122;SDS011;10222;50.848;4.336;2024-01-15T08:05:18;5.67;;;3.40;;
20122;SDS011;10222;50.848;4.336;2024-01-15T08:07:45;5.83;;;2.70;;
20122;SDS011;10222;50.848;4.336;2024-01-15T08:10:11;6.20;;;2.87;;
20122;SDS011;10222;50.848;4.336;2024-01-15T08:12:38;8.73;;;2.93;;
20122;SDS011;10222;50.848;4.336;2024-01-15T08:15:05;6.73;;;2.67;;
20122;SDS011;10222;50.848;4.336;2024-01-15T08:17:31;7.43;;;2.90;;
20122;SDS011;10222;50.848;4.336;2024-01-15T08:19:57;4.70;;;3.10;;
20122;SDS011;10222;50.848;4.336;2024-01-15T08:22:24;7.40;;;2.70;;
20122;SDS011;10222;50.848;4.336;2024-01-15T08:24:50;6.60;;;2.43;;
20122;SDS011;10222;50.848;4.336;2024-01-15T08:27:17;6.07;;;2.50;;
20122;SDS011;10222;50.848;4.336;2024-01-15T08:29:43;5.33;;;2.73;;
20122;SDS011;10222;50.848;4.336;2024-01-15T08:32:10;4.47;;;1.97;;
20122;SDS011;10222;50.848;4.336;2024-01-15T08:34:39;2.97;;;1.50;;
20122;SDS011;10222;50.848;4.336;2024-01-15T08:37:05;6.20;;;1.80;;
20122;SDS011;10222;50.848;4.336;2024-01-15T08:39:31;3.73;;;1.30;;
20122;SDS011;10222;50.848;4.336;2024-01-15T08:41:57;5.33;;;1.63;;
20122;SDS011;10222;50.848;4.336;2024-01-15T08:44:23;4.13;;;1.27;;
20122;SDS011;10222;50.848;4.336;2024-01-15T08:46:49;6.70;;;1.60;;
20122;SDS011;10222;50.848;4.336;2024-01-15T08:49:15;4.77;;;1.50;;
20122;SDS011;10222;50.848;4.336;2024-01-15T08:51:41;3.33;;;1.70;;
20122;SDS011;10222;50.848;4.336;2024-01-15T08:54:07;5.63;;;1.83;;
20122;SDS011;10222;50.848;4.336;2024-01-15T08:56:34;7.10;;;1.87;;
20122;SDS011;10222;50.848;4.336;2024-01-15T08:59:00;6.33;;;2.10;;
20122;SDS011;10222;50.848;4.336;2024-01-15T09:01:26;7.00;;;1.77;;
20122;SDS011;10222;50.848;4.336;2024-01-15T09:03:52;4.23;;;1.40;;
20122;SDS011;10222;50.848;4.336;2024-01-15T09:06:18;2.50;;;1.50;;
20122;SDS011;10222;50.848;4.336;2024-01-15T09:08:44;5.87;;;1.30;;
20122;SDS011;10222;50.848;4.336;2024-01-15T09:11:10;3.53;;;1.17;;
20122;SDS011;10222;50.848;4.336;2024-01-15T09:13:37;3.80;;;1.30;;
20122;SDS011;10222;50.848;4.336;2024-01-15T09:16:03;2.70;;;1.37;;
20122;SDS011;10222;50.848;4.336;2024-01-15T09:18:29;5.30;;;1.40;;
20122;SDS011;10222;50.848;4.336;2024-01-15T09:20:55;7.77;;;1.40;;
20122;SDS011;10222;50.848;4.336;2024-01-15T09:23:22;4.23;;;1.50;;
20122;SDS011;10222;50.848;4.336;2024-01-15T09:25:49;5.57;;;1.00;;
20122;SDS011;10222;50.848;4.336;2024-01-15T09:28:17;2.63;;;1.17;;
20122;SDS011;10222;50.848;4.336;2024-01-15T09:30:43;6.17;;;1.50;;
20122;SDS011;10222;50.848;4.336;2024-01-15T09:33:10;2.73;;;1.10;;
20122;SDS011;10222;50.848;4.336;2024-01-15T09:35:36;7.73;;;1.60;;
20122;SDS011;10222;50.848;4.336;2024-01-15T09:38:03;2.97;;;1.23;;
20122;SDS011;10222;50.848;4.336;2024-01-15T09:40:31;5.03;;;1.30;;
20122;SDS011;10222;50.848;4.336;2024-01-15T09:43:01;2.60;;;1.20;;
20122;SDS011;10222;50.848;4.336;2024-01-15T09:45:27;5.90;;;1.40;;
20122;SDS011;10222;50.848;4.336;2024-01-15T09:47:54;3.00;;;1.47;;
20122;SDS011;10222;50.848;4.336;2024-01-15T09:50:20;2.43;;;1.30;;
20122;SDS011;10222;50.848;4.336;2024-01-15T09:52:46;3.03;;;0.87;;
20122;SDS011;10222;50.848;4.336;2024-01-15T09:55:13;4.57;;;1.30;;
20122;SDS011;10222;50.848;4.336;2024-01-15T09:57:41;3.40;;;0.90;;
20122;SDS011;10222;50.848;4.336;2024-01-15T10:00:07;3.00;;;1.00;;
20122;SDS011;10222;50.848;4.336;2024-01-15T10:02:35;3.20;;;1.10;;
20122;SDS011;10222;50.848;4.336;2024-01-15T10:05:02;3.27;;;1.40;;
20122;SDS011;10222;50.848;4.336;2024-01-15T10:07:29;3.60;;;1.20;;
20122;SDS011;10222;50.848;4.336;2024-01-15T10:09:58;3.63;;;1.30;;
20122;SDS011;10222;50.848;4.336;2024-01-15T10:12:26;2.53;;;1.10;;
20122;SDS011;10222;50.848;4.336;2024-01-15T10:14:52;4.27;;;1.60;;
20122;SDS011;10222;50.848;4.336;2024-01-15T10:17:18;2.43;;;1.10;;
20122;SDS011;10222;50.848;4.336;2024-01-15T10:19:47;4.93;;;1.60;;
20122;SDS011;10222;50.848;4.336;2024-01-15T10:22:14;5.83;;;1.23;;
20122;SDS011;10222;50.848;4.336;2024-01-15T10:24:41;6.63;;;1.27;;
20122;SDS011;10222;50.848;4.336;2024-01-15T10:27:07;5.77;;;0.90;;
20122;SDS011;10222;50.848;4.336;2024-01-15T10:29:34;2.30;;;0.80;;
20122;SDS011;10222;50.848;4.336;2024-01-15T10:32:02;6.30;;;1.20;;
20122;SDS011;10222;50.848;4.336;2024-01-15T10:34:30;2.67;;;1.03;;
20122;SDS011;10222;50.848;4.336;2024-01-15T10:36:56;3.70;;;1.00;;
20122;SDS011;10222;50.848;4.336;2024-01-15T10:39:22;1.53;;;0.80;;
20122;SDS011;10222;50.848;4.336;2024-01-15T10:41:51;3.03;;;1.30;;
20122;SDS011;10222;50.848;4.336;2024-01-15T10:44:17;10.43;;;2.10;;
20122;SDS011;10222;50.848;4.336;2024-01-15T10:46:44;3.90;;;1.30;;
20122;SDS011;10222;50.848;4.336;2024-01-15T10:49:13;3.77;;;1.40;;
20122;SDS011;10222;50.848;4.336;2024-01-15T10:51:40;5.57;;;2.00;;
20122;SDS011;10222;50.848;4.336;2024-01-15T10:54:09;3.97;;;1.30;;
20122;SDS011;10222;50.848;4.336;2024-01-15T10:56:36;4.07;;;1.00;;
20122;SDS011;10222;50.848;4.336;2024-01-15T10:59:03;4.30;;;1.10;;
20122;SDS011;10222;50.848;4.336;2024-01-15T11:01:30;8.07;;;1.40;;
20122;SDS011;10222;50.848;4.336;2024-01-15T11:03:56;5.70;;;1.70;;
20122;SDS011;10222;50.848;4.336;2024-01-15T11:06:24;3.20;;;1.00;;
20122;SDS011;10222;50.848;4.336;2024-01-15T11:08:50;4.30;;;0.90;;
20122;SDS011;10222;50.848;4.336;2024-01-15T11:11:18;3.87;;;1.30;;
20122;SDS011;10222;50.848;4.336;2024-01-15T11:13:46;5.20;;;1.13;;
20122;SDS011;10222;50.848;4.336;2024-01-15T11:16:14;2.63;;;1.27;;
20122;SDS011;10222;50.848;4.336;2024-01-15T11:18:42;1.53;;;0.90;;
20122;SDS011;10222;50.848;4.336;2024-01-15T11:23:46;5.00;;;1.57;;
20122;SDS011;10222;50.848;4.336;2024-01-15T11:26:29;3.47;;;1.33;;
20122;SDS011;10222;50.848;4.336;2024-01-15T11:28:55;7.63;;;1.80;;
20122;SDS011;10222;50.848;4.336;2024-01-15T11:34:06;9.13;;;2.30;;
20122;SDS011;10222;50.848;4.336;2024-01-15T11:41:58;1.70;;;0.80;;
20122;SDS011;10222;50.848;4.336;2024-01-15T11:44:25;4.43;;;1.00;;
20122;SDS011;10222;50.848;4.336;2024-01-15T11:51:55;1.43;;;0.87;;
20122;SDS011;10222;50.848;4.336;2024-01-15T11:54:22;4.07;;;1.10;;
20122;SDS011;10222;50.848;4.336;2024-01-15T11:56:49;6.43;;;1.43;;
20122;SDS011;10222;50.848;4.336;2024-01-15T11:59:16;2.57;;;1.07;;
20122;SDS011;10222;50.848;4.336;2024-01-15T12:01:42;7.30;;;1.27;;
20122;SDS011;10222;50.848;4.336;2024-01-15T12:04:08;4.33;;;1.40;;
20122;SDS011;10222;50.848;4.336;2024-01-15T12:06:34;6.17;;;1.40;;
20122;SDS011;10222;50.848;4.336;2024-01-15T12:09:06;4.23;;;2.00;;
20122;SDS011;10222;50.848;4.336;2024-01-15T12:11:32;3.43;;;1.73;;
20122;SDS011;10222;50.848;4.336;2024-01-15T12:14:00;5.73;;;1.47;;
20122;SDS011;10222;50.848;4.336;2024-01-15T12:16:26;3.83;;;1.87;;
20122;SDS011;10222;50.848;4.336;2024-01-15T12:18:52;2.83;;;1.00;;
20122;SDS011;10222;50.848;4.336;2024-01-15T12:21:18;3.60;;;0.90;;
20122;SDS011;10222;50.848;4.336;2024-01-15T12:23:48;3.97;;;1.10;;
20122;SDS011;10222;50.848;4.336;2024-01-15T12:26:14;1.97;;;1.13;;
20122;SDS011;10222;50.848;4.336;2024-01-15T12:28:40;2.83;;;0.80;;
20122;SDS011;10222;50.848;4.336;2024-01-15T12:31:06;3.13;;;1.07;;
20122;SDS011;10222;50.848;4.336;2024-01-15T12:33:33;6.90;;;1.07;;
20122;SDS011;10222;50.848;4.336;2024-01-15T12:35:59;7.17;;;2.17;;
20122;SDS011;10222;50.848;4.336;2024-01-15T12:38:25;3.57;;;0.90;;
20122;SDS011;10222;50.848;4.336;2024-01-15T12:40:51;4.67;;;1.20;;
20122;SDS011;10222;50.848;4.336;2024-01-15T12:43:17;5.20;;;1.13;;
20122;SDS011;10222;50.848;4.336;2024-01-15T12:45:43;3.97;;;1.10;;
20122;SDS011;10222;50.848;4.336;2024-01-15T12:48:09;4.90;;;0.77;;
20122;SDS011;10222;50.848;4.336;2024-01-15T12:50:35;3.80;;;1.23;;
20122;SDS011;10222;50.848;4.336;2024-01-15T12:53:02;4.27;;;1.10;;
20122;SDS011;10222;50.848;4.336;2024-01-15T12:55:28;5.10;;;1.07;;
20122;SDS011;10222;50.848;4.336;2024-01-15T12:57:54;2.87;;;0.67;;
20122;SDS011;10222;50.848;4.336;2024-01-15T13:00:20;6.23;;;1.23;;
20122;SDS011;10222;50.848;4.336;2024-01-15T13:02:46;3.13;;;0.80;;
20122;SDS011;10222;50.848;4.336;2024-01-15T13:05:12;3.93;;;1.00;;
20122;SDS011;10222;50.848;4.336;2024-01-15T13:07:38;5.77;;;1.50;;
20122;SDS011;10222;50.848;4.336;2024-01-15T13:10:05;4.40;;;1.33;;
20122;SDS011;10222;50.848;4.336;2024-01-15T13:12:31;2.57;;;0.90;;
20122;SDS011;10222;50.848;4.336;2024-01-15T13:14:59;2.70;;;1.03;;
20122;SDS011;10222;50.848;4.336;2024-01-15T13:17:25;6.67;;;2.03;;
20122;SDS011;10222;50.848;4.336;2024-01-15T13:19:51;7.13;;;2.20;;
20122;SDS011;10222;50.848;4.336;2024-01-15T13:22:17;1.97;;;1.13;;
20122;SDS011;10222;50.848;4.336;2024-01-15T13:24:43;4.73;;;1.10;;
20122;SDS011;10222;50.848;4.336;2024-01-15T13:27:09;4.57;;;1.33;;
20122;SDS011;10222;50.848;4.336;2024-01-15T13:29:36;5.20;;;1.30;;
20122;SDS011;10222;50.848;4.336;2024-01-15T13:32:03;1.67;;;0.90;;
20122;SDS011;10222;50.848;4.336;2024-01-15T13:34:31;8.70;;;1.57;;
20122;SDS011;10222;50.848;4.336;2024-01-15T13:36:57;5.60;;;1.67;;
20122;SDS011;10222;50.848;4.336;2024-01-15T13:39:23;8.63;;;2.97;;
20122;SDS011;10222;50.848;4.336;2024-01-15T13:41:49;7.10;;;1.60;;
20122;SDS011;10222;50.848;4.336;2024-01-15T13:44:15;9.03;;;2.00;;
20122;SDS011;10222;50.848;4.336;2024-01-15T13:46:41;8.80;;;1.83;;
20122;SDS011;10222;50.848;4.336;2024-01-15T13:49:07;9.93;;;2.93;;
20122;SDS011;10222;50.848;4.336;2024-01-15T13:51:36;8.43;;;1.53;;
20122;SDS011;10222;50.848;4.336;2024-01-15T13:54:02;2.33;;;1.60;;
20122;SDS011;10222;50.848;4.336;2024-01-15T13:56:33;2.87;;;1.73;;
20122;SDS011;10222;50.848;4.336;2024-01-15T13:59:00;4.13;;;1.10;;
20122;SDS011;10222;50.848;4.336;2024-01-15T14:01:27;5.80;;;1.03;;
20122;SDS011;10222;50.848;4.336;2024-01-15T14:03:53;2.07;;;1.13;;
20122;SDS011;10222;50.848;4.336;2024-01-15T14:06:19;5.77;;;1.13;;
20122;SDS011;10222;50.848;4.336;2024-01-15T14:08:45;4.93;;;1.30;;
20122;SDS011;10222;50.848;4.336;2024-01-15T14:11:11;4.40;;;1.13;;
20122;SDS011;10222;50.848;4.336;2024-01-15T14:13:37;6.80;;;1.30;;
20122;SDS011;10222;50.848;4.336;2024-01-15T14:16:04;4.30;;;1.33;;
20122;SDS011;10222;50.848;4.336;2024-01-15T14:18:30;3.50;;;0.87;;
20122;SDS011;10222;50.848;4.336;2024-01-15T14:20:57;6.23;;;1.87;;
20122;SDS011;10222;50.848;4.336;2024-01-15T14:23:23;7.57;;;1.30;;
20122;SDS011;10222;50.848;4.336;2024-01-15T14:25:49;10.30;;;1.20;;
20122;SDS011;10222;50.848;4.336;2024-01-15T14:28:15;6.10;;;1.53;;
20122;SDS011;10222;50.848;4.336;2024-01-15T14:30:41;7.90;;;1.20;;
20122;SDS011;10222;50.848;4.336;2024-01-15T14:33:07;5.47;;;1.10;;
20122;SDS011;10222;50.848;4.336;2024-01-15T14:35:33;1.83;;;0.93;;
20122;SDS011;10222;50.848;4.336;2024-01-15T14:37:59;1.77;;;0.70;;
20122;SDS011;10222;50.848;4.336;2024-01-15T14:40:25;3.23;;;0.90;;
20122;SDS011;10222;50.848;4.336;2024-01-15T14:42:52;2.43;;;1.10;;
20122;SDS011;10222;50.848;4.336;2024-01-15T14:45:18;2.30;;;1.07;;
20122;SDS011;10222;50.848;4.336;2024-01-15T14:47:44;1.67;;;1.10;;
20122;SDS011;10222;50.848;4.336;2024-01-15T14:50:11;5.30;;;1.40;;
20122;SDS011;10222;50.848;4.336;2024-01-15T14:52:38;4.47;;;1.60;;
20122;SDS011;10222;50.848;4.336;2024-01-15T14:55:07;5.80;;;1.10;;
20122;SDS011;10222;50.848;4.336;2024-01-15T14:57:34;2.67;;;0.70;;
20122;SDS011;10222;50.848;4.336;2024-01-15T15:00:00;3.00;;;0.90;;